Time;durP1;ratioP1;P1;durP2;ratioP2;P2;SDS_P1;SDS_P2;PMS_P1;PMS_P2;Temp;Humidity;BMP_temperature;BMP_pressure;BME280_temperature;BME280_humidity;BME280_pressure;Samples;Min_cycle;Max_cycle;Signal;HPM_P1;HPM_P2
2021/01/18 00:00:40;;;;;;;;;;;-1.20;99.90;;;;;;4901214;29;19930;-83
2021/01/18 00:03:07;;;;;;;;;;;-1.10;99.90;;;;;;4898859;29;19927;-83
2021/01/18 00:05:37;;;;;;;;;;;-1.20;99.90;;;;;;4904837;29;19927;-83
2021/01/18 00:08:05;;;;;;;;;;;-1.10;99.90;;;;;;4900475;29;19923;-83
2021/01/18 00:10:32;;;;;;;;;;;-1.10;99.90;;;;;;4923087;29;19923;-83
2021/01/18 00:12:59;;;;;;;;;;;-1.10;99.90;;;;;;4912386;29;19927;-84
2021/01/18 00:15:29;;;;;;;;;;;-1.00;99.90;;;;;;4886568;29;19923;-83
2021/01/18 00:17:56;;;;;;;;;;;-1.00;99.90;;;;;;4918984;29;19927;-83
2021/01/18 00:20:23;;;;;;;;;;;-1.00;99.90;;;;;;4915717;29;19923;-82
2021/01/18 00:22:51;;;;;;;;;;;-1.00;99.90;;;;;;4905531;29;19942;-83
2021/01/18 00:25:19;;;;;;;;;;;-1.00;99.90;;;;;;4917713;29;19929;-83
2021/01/18 00:27:47;;;;;;;;;;;-0.90;99.90;;;;;;4916993;29;19937;-83
2021/01/18 00:30:17;;;;;;;;;;;-0.90;99.90;;;;;;4912656;29;19927;-83
2021/01/18 00:32:44;;;;;;;;;;;-0.80;99.90;;;;;;4930144;29;20338;-82
2021/01/18 00:35:13;;;;;;;;;;;-0.80;99.90;;;;;;4907237;29;19933;-83
2021/01/18 00:37:41;;;;;;;;;;;-0.80;99.90;;;;;;4934415;29;19907;-83
2021/01/18 00:40:09;;;;;;;;;;;-0.80;99.90;;;;;;4926421;29;19923;-83
2021/01/18 00:42:38;;;;;;;;;;;-0.80;99.90;;;;;;4925050;29;19926;-83
2021/01/18 00:45:08;;;;;;;;;;;-0.50;99.90;;;;;;4932506;29;19923;-82
2021/01/18 00:47:39;;;;;;;;;;;-0.40;99.90;;;;;;4908858;29;19927;-83
2021/01/18 00:50:07;;;;;;;;;;;-0.30;99.90;;;;;;4911411;29;19933;-83
2021/01/18 00:52:34;;;;;;;;;;;-0.30;99.90;;;;;;4921540;29;19929;-83
2021/01/18 00:55:05;;;;;;;;;;;-0.40;99.90;;;;;;4901784;29;19942;-83
2021/01/18 00:57:46;;;;;;;;;;;-0.40;99.90;;;;;;4904510;29;19929;-83
2021/01/18 01:00:15;;;;;;;;;;;-0.40;99.90;;;;;;4907849;29;19923;-83
2021/01/18 01:02:43;;;;;;;;;;;-0.40;99.90;;;;;;4921059;29;19923;-83
2021/01/18 01:05:13;;;;;;;;;;;-0.40;99.90;;;;;;4888408;29;19934;-83
2021/01/18 01:07:40;;;;;;;;;;;-0.40;99.90;;;;;;4928633;29;19913;-83
2021/01/18 01:10:11;;;;;;;;;;;-0.40;99.90;;;;;;4920839;29;19907;-83
2021/01/18 01:12:38;;;;;;;;;;;-0.50;99.90;;;;;;4907482;29;20371;-82
2021/01/18 01:15:08;;;;;;;;;;;-0.40;99.90;;;;;;4915189;29;20225;-83
2021/01/18 01:17:42;;;;;;;;;;;-0.30;99.90;;;;;;4931501;29;19923;-83
2021/01/18 01:20:10;;;;;;;;;;;-0.20;99.90;;;;;;4899993;29;19923;-83
2021/01/18 01:22:38;;;;;;;;;;;-0.20;99.90;;;;;;4924741;29;19923;-83
2021/01/18 01:25:08;;;;;;;;;;;-0.20;99.90;;;;;;4897617;29;19923;-84
2021/01/18 01:27:35;;;;;;;;;;;-0.20;99.90;;;;;;4897777;29;19926;-83
2021/01/18 01:30:06;;;;;;;;;;;-0.30;99.90;;;;;;4900047;29;19923;-83
2021/01/18 01:32:34;;;;;;;;;;;-0.40;99.90;;;;;;4914315;29;19923;-82
2021/01/18 01:35:01;;;;;;;;;;;-0.50;99.90;;;;;;4922524;29;19907;-83
2021/01/18 01:37:28;;;;;;;;;;;-0.50;99.90;;;;;;4896428;29;19944;-82
2021/01/18 01:39:55;;;;;;;;;;;-0.50;99.90;;;;;;4918469;29;19923;-83
2021/01/18 01:42:25;;;;;;;;;;;-0.50;99.90;;;;;;4908034;29;19934;-83
2021/01/18 01:44:52;;;;;;;;;;;-0.50;99.90;;;;;;4936016;29;19992;-83
2021/01/18 01:47:27;;;;;;;;;;;-0.40;99.90;;;;;;4929152;29;19929;-82
2021/01/18 01:49:56;;;;;;;;;;;-0.50;99.90;;;;;;4922965;29;19923;-82
2021/01/18 01:52:26;;;;;;;;;;;-0.50;99.90;;;;;;4889919;29;19923;-82
2021/01/18 01:55:00;;;;;;;;;;;-0.60;99.90;;;;;;4915998;29;19923;-83
2021/01/18 01:57:29;;;;;;;;;;;-0.70;99.90;;;;;;4930302;29;19933;-83
2021/01/18 01:59:57;;;;;;;;;;;-0.70;99.90;;;;;;4924691;29;19927;-82
2021/01/18 02:02:25;;;;;;;;;;;-0.70;99.90;;;;;;4907772;29;19923;-82
2021/01/18 02:04:52;;;;;;;;;;;-0.70;99.90;;;;;;4924149;29;19924;-83
2021/01/18 02:07:21;;;;;;;;;;;-0.70;99.90;;;;;;4907238;29;20378;-82
2021/01/18 02:09:48;;;;;;;;;;;-0.70;99.90;;;;;;4888127;29;19923;-81
2021/01/18 02:12:15;;;;;;;;;;;-0.70;99.90;;;;;;4904539;29;19933;-81
2021/01/18 02:14:54;;;;;;;;;;;-0.80;99.90;;;;;;4940207;29;19933;-81
2021/01/18 02:17:24;;;;;;;;;;;-0.80;99.90;;;;;;4934466;29;19934;-81
2021/01/18 02:20:18;;;;;;;;;;;-0.70;99.90;;;;;;4904530;29;19919;-82
2021/01/18 02:23:15;;;;;;;;;;;-0.70;99.90;;;;;;4905305;29;19933;-81
2021/01/18 02:25:44;;;;;;;;;;;-0.70;99.90;;;;;;4860731;29;19927;-81
2021/01/18 02:28:26;;;;;;;;;;;-0.60;99.90;;;;;;4921997;29;19943;-80
2021/01/18 02:31:14;;;;;;;;;;;-0.60;99.90;;;;;;4939323;29;19923;-82
2021/01/18 02:34:03;;;;;;;;;;;-0.50;99.90;;;;;;4923834;29;19923;-82
2021/01/18 02:36:35;;;;;;;;;;;-0.50;99.90;;;;;;4911223;29;19919;-82
2021/01/18 02:39:04;;;;;;;;;;;-0.60;99.90;;;;;;4908601;29;19923;-81
2021/01/18 02:41:37;;;;;;;;;;;-0.60;99.90;;;;;;4899705;29;19923;-82
2021/01/18 02:44:05;;;;;;;;;;;-0.60;99.90;;;;;;4904046;29;19923;-82
2021/01/18 02:46:34;;;;;;;;;;;-0.60;99.90;;;;;;4905314;29;19923;-81
2021/01/18 02:49:01;;;;;;;;;;;-0.60;99.90;;;;;;4905663;29;19924;-82
2021/01/18 02:51:28;;;;;;;;;;;-0.60;99.90;;;;;;4928730;29;19923;-82
2021/01/18 02:54:00;;;;;;;;;;;-0.60;99.90;;;;;;4913063;29;19923;-82
2021/01/18 02:56:28;;;;;;;;;;;-0.60;99.90;;;;;;4924906;29;19949;-82
2021/01/18 02:59:01;;;;;;;;;;;-0.60;99.90;;;;;;4919121;29;19930;-82
2021/01/18 03:01:36;;;;;;;;;;;-0.60;99.90;;;;;;4872855;29;19930;-81
2021/01/18 03:04:05;;;;;;;;;;;-0.60;99.90;;;;;;4908864;29;19923;-82
2021/01/18 03:06:36;;;;;;;;;;;-0.60;99.90;;;;;;4938206;29;19933;-82
2021/01/18 03:09:11;;;;;;;;;;;-0.50;99.90;;;;;;4901670;29;19923;-81
2021/01/18 03:11:40;;;;;;;;;;;-0.50;99.90;;;;;;4914543;29;19930;-82
2021/01/18 03:14:13;;;;;;;;;;;-0.60;99.90;;;;;;4906810;29;19923;-83
2021/01/18 03:16:44;;;;;;;;;;;-0.50;99.90;;;;;;4926030;29;19923;-82
2021/01/18 03:19:14;;;;;;;;;;;-0.50;99.90;;;;;;4918410;29;19923;-83
2021/01/18 03:21:45;;;;;;;;;;;-0.40;99.90;;;;;;4937784;29;19913;-83
2021/01/18 03:24:20;;;;;;;;;;;-0.40;99.90;;;;;;4922036;29;19924;-82
2021/01/18 03:26:47;;;;;;;;;;;-0.40;99.90;;;;;;4926464;29;19915;-82
2021/01/18 03:29:17;;;;;;;;;;;-0.40;99.90;;;;;;4890317;29;19934;-83
2021/01/18 03:31:44;;;;;;;;;;;-0.40;99.90;;;;;;4937530;29;19929;-81
2021/01/18 03:34:11;;;;;;;;;;;-0.40;99.90;;;;;;4908481;29;19929;-82
2021/01/18 03:36:38;;;;;;;;;;;-0.40;99.90;;;;;;4923532;29;19937;-80
2021/01/18 03:39:09;;;;;;;;;;;-0.40;99.90;;;;;;4941174;29;19930;-81
2021/01/18 03:41:37;;;;;;;;;;;-0.40;99.90;;;;;;4925158;29;19933;-81
2021/01/18 03:44:07;;;;;;;;;;;-0.40;99.90;;;;;;4922699;29;19923;-82
2021/01/18 03:46:35;;;;;;;;;;;-0.40;99.90;;;;;;4914275;29;19923;-82
2021/01/18 03:49:02;;;;;;;;;;;-0.30;99.90;;;;;;4903232;29;19923;-81
2021/01/18 03:51:30;;;;;;;;;;;-0.20;99.90;;;;;;4930841;29;19932;-81
2021/01/18 03:54:01;;;;;;;;;;;-0.20;99.90;;;;;;4914538;29;19927;-82
2021/01/18 03:56:31;;;;;;;;;;;-0.20;99.90;;;;;;4919076;29;19913;-83
2021/01/18 03:59:02;;;;;;;;;;;-0.20;99.90;;;;;;4919952;29;19923;-82
2021/01/18 04:01:31;;;;;;;;;;;-0.10;99.90;;;;;;4918844;29;19929;-82
2021/01/18 04:03:58;;;;;;;;;;;-0.10;99.90;;;;;;4916494;29;19907;-81
2021/01/18 04:06:32;;;;;;;;;;;-0.20;99.90;;;;;;4918946;29;19924;-81
2021/01/18 04:09:01;;;;;;;;;;;-0.20;99.90;;;;;;4930787;29;19934;-82
2021/01/18 04:11:28;;;;;;;;;;;-0.20;99.90;;;;;;4939122;29;19923;-82
2021/01/18 04:13:55;;;;;;;;;;;-0.10;99.90;;;;;;4919693;29;19907;-81
2021/01/18 04:16:23;;;;;;;;;;;-0.10;99.90;;;;;;4926112;29;19929;-81
2021/01/18 04:18:50;;;;;;;;;;;-0.10;99.90;;;;;;4939624;29;19923;-82
2021/01/18 04:21:18;;;;;;;;;;;-0.10;99.90;;;;;;4934400;29;19933;-83
2021/01/18 04:23:49;;;;;;;;;;;-0.10;99.90;;;;;;4916882;29;19927;-82
2021/01/18 04:26:19;;;;;;;;;;;-0.10;99.90;;;;;;4921977;29;19923;-83
2021/01/18 04:28:47;;;;;;;;;;;-0.10;99.90;;;;;;4917196;29;19913;-83
2021/01/18 04:31:17;;;;;;;;;;;-0.10;99.90;;;;;;4923925;29;19929;-82
2021/01/18 04:33:48;;;;;;;;;;;0.00;99.90;;;;;;4915132;29;19934;-83
2021/01/18 04:36:15;;;;;;;;;;;0.00;99.90;;;;;;4929522;29;19923;-83
2021/01/18 04:38:42;;;;;;;;;;;0.00;99.90;;;;;;4923951;29;19919;-83
2021/01/18 04:41:09;;;;;;;;;;;0.00;99.90;;;;;;4908571;29;19907;-79
2021/01/18 04:43:38;;;;;;;;;;;0.00;99.90;;;;;;4922509;29;19920;-82
2021/01/18 04:46:10;;;;;;;;;;;0.00;99.90;;;;;;4940099;29;19913;-82
2021/01/18 04:48:41;;;;;;;;;;;0.00;99.90;;;;;;4906132;29;19924;-82
2021/01/18 04:51:14;;;;;;;;;;;0.00;99.90;;;;;;4919213;29;19933;-82
2021/01/18 04:53:51;;;;;;;;;;;0.00;99.90;;;;;;4897588;29;19933;-85
2021/01/18 04:56:28;;;;;;;;;;;0.00;99.90;;;;;;4922833;29;19937;-83
2021/01/18 04:59:00;;;;;;;;;;;0.00;99.90;;;;;;4924561;29;19907;-81
2021/01/18 05:01:29;;;;;;;;;;;0.10;99.90;;;;;;4907726;29;19930;-82
2021/01/18 05:04:03;;;;;;;;;;;0.10;99.90;;;;;;4932641;29;19911;-82
2021/01/18 05:06:46;;;;;;;;;;;0.10;99.90;;;;;;4920847;29;19923;-84
2021/01/18 05:09:24;;;;;;;;;;;0.10;99.90;;;;;;4921717;29;19923;-82
2021/01/18 05:11:51;;;;;;;;;;;0.10;99.90;;;;;;4903400;29;19927;-83
2021/01/18 05:14:21;;;;;;;;;;;0.20;99.90;;;;;;4919061;29;19937;-84
2021/01/18 05:16:52;;;;;;;;;;;0.20;99.90;;;;;;4911339;29;19934;-82
2021/01/18 05:19:25;;;;;;;;;;;0.20;99.90;;;;;;4919712;29;19933;-82
2021/01/18 05:21:56;;;;;;;;;;;0.20;99.90;;;;;;4904411;29;19923;-81
2021/01/18 05:24:24;;;;;;;;;;;0.20;99.90;;;;;;4917703;29;19924;-83
2021/01/18 05:27:05;;;;;;;;;;;0.20;99.90;;;;;;4913375;29;19933;-81
2021/01/18 05:29:33;;;;;;;;;;;0.20;99.90;;;;;;4924859;29;19929;-81
2021/01/18 05:32:00;;;;;;;;;;;0.20;99.90;;;;;;4916283;29;19928;-82
2021/01/18 05:34:28;;;;;;;;;;;0.30;99.90;;;;;;4908805;29;19924;-82
2021/01/18 05:36:57;;;;;;;;;;;0.30;99.90;;;;;;4935715;29;19931;-81
2021/01/18 05:39:31;;;;;;;;;;;0.40;99.90;;;;;;4894744;29;19907;-82
2021/01/18 05:42:01;;;;;;;;;;;0.40;99.90;;;;;;4928253;29;19923;-81
2021/01/18 05:44:32;;;;;;;;;;;0.50;99.90;;;;;;4899721;29;19923;-82
2021/01/18 05:47:03;;;;;;;;;;;0.50;99.90;;;;;;4884347;29;19933;-81
2021/01/18 05:49:38;;;;;;;;;;;0.50;99.90;;;;;;4893223;29;19923;-82
2021/01/18 05:52:23;;;;;;;;;;;0.50;99.90;;;;;;4939158;29;19923;-82
2021/01/18 05:54:52;;;;;;;;;;;0.60;99.90;;;;;;4898206;29;19923;-84
2021/01/18 05:57:19;;;;;;;;;;;0.60;99.90;;;;;;4912607;29;19933;-84
2021/01/18 05:59:47;;;;;;;;;;;0.50;99.90;;;;;;4920355;29;19923;-82
2021/01/18 06:02:22;;;;;;;;;;;0.50;99.90;;;;;;4908055;29;19923;-82
2021/01/18 06:04:55;;;;;;;;;;;0.50;99.90;;;;;;4939449;29;19935;-82
2021/01/18 06:07:23;;;;;;;;;;;0.60;99.90;;;;;;4929452;29;19914;-83
2021/01/18 06:09:51;;;;;;;;;;;0.60;99.90;;;;;;4908808;29;19923;-81
2021/01/18 06:12:23;;;;;;;;;;;0.70;99.90;;;;;;4902980;29;19938;-82
2021/01/18 06:15:06;;;;;;;;;;;0.70;99.90;;;;;;4899698;29;19923;-83
2021/01/18 06:17:36;;;;;;;;;;;0.70;99.90;;;;;;4930402;29;19937;-82
2021/01/18 06:20:03;;;;;;;;;;;0.70;99.90;;;;;;4914246;29;19913;-82
2021/01/18 06:22:30;;;;;;;;;;;0.80;99.90;;;;;;4912500;29;19908;-83
2021/01/18 06:25:10;;;;;;;;;;;0.80;99.90;;;;;;4936864;29;19918;-84
2021/01/18 06:27:40;;;;;;;;;;;0.80;99.90;;;;;;4924913;29;19907;-86
2021/01/18 06:30:21;;;;;;;;;;;0.70;99.90;;;;;;4908290;29;19957;-86
2021/01/18 06:32:50;;;;;;;;;;;0.70;99.90;;;;;;4910192;29;19933;-82
2021/01/18 06:35:21;;;;;;;;;;;0.80;99.90;;;;;;4928493;29;19933;-82
2021/01/18 06:37:53;;;;;;;;;;;0.90;99.90;;;;;;4896407;29;19927;-82
2021/01/18 06:40:26;;;;;;;;;;;0.90;99.90;;;;;;4926083;29;19923;-82
2021/01/18 06:42:54;;;;;;;;;;;1.10;99.90;;;;;;4891858;29;19937;-83
2021/01/18 06:45:31;;;;;;;;;;;1.00;99.90;;;;;;4923578;29;19938;-82
2021/01/18 06:48:06;;;;;;;;;;;1.10;99.90;;;;;;4920466;29;19923;-84
2021/01/18 06:50:34;;;;;;;;;;;1.00;99.90;;;;;;4931060;29;19919;-85
2021/01/18 06:53:13;;;;;;;;;;;1.10;99.90;;;;;;4916842;29;19934;-84
2021/01/18 06:55:47;;;;;;;;;;;1.10;99.90;;;;;;4891322;29;19933;-84
2021/01/18 06:58:32;;;;;;;;;;;1.10;99.90;;;;;;4905101;29;19923;-85
2021/01/18 07:01:03;;;;;;;;;;;1.10;99.90;;;;;;4919050;29;19934;-82
2021/01/18 07:03:38;;;;;;;;;;;1.30;99.90;;;;;;4905576;29;19930;-82
2021/01/18 07:06:22;;;;;;;;;;;1.30;99.90;;;;;;4921932;29;19923;-81
2021/01/18 07:08:51;;;;;;;;;;;1.40;99.90;;;;;;4907239;29;19923;-82
2021/01/18 07:11:19;;;;;;;;;;;1.40;99.90;;;;;;4916962;29;20365;-82
2021/01/18 07:13:50;;;;;;;;;;;1.30;99.90;;;;;;4936707;29;19933;-84
2021/01/18 07:16:18;;;;;;;;;;;1.40;99.90;;;;;;4898271;29;19950;-81
2021/01/18 07:18:55;;;;;;;;;;;1.40;99.90;;;;;;4921625;29;19923;-80
2021/01/18 07:21:28;;;;;;;;;;;1.40;99.90;;;;;;4905751;29;19934;-80
2021/01/18 07:23:56;;;;;;;;;;;1.60;99.90;;;;;;4914092;29;19907;-83
2021/01/18 07:26:45;;;;;;;;;;;1.60;99.90;;;;;;4919201;29;19934;-81
2021/01/18 07:29:17;;;;;;;;;;;1.50;99.90;;;;;;4921309;29;19941;-80
2021/01/18 07:31:45;;;;;;;;;;;1.70;99.90;;;;;;4908024;29;19930;-81
2021/01/18 07:34:15;;;;;;;;;;;1.80;99.90;;;;;;4908945;29;20282;-80
2021/01/18 07:36:42;;;;;;;;;;;1.80;99.90;;;;;;4911349;29;19930;-82
2021/01/18 07:39:23;;;;;;;;;;;1.80;99.90;;;;;;4909656;29;19923;-79
2021/01/18 07:41:50;;;;;;;;;;;1.80;99.90;;;;;;4904909;29;19930;-81
2021/01/18 07:44:46;;;;;;;;;;;1.90;99.90;;;;;;4909639;29;19923;-80
2021/01/18 07:47:14;;;;;;;;;;;1.90;99.90;;;;;;4874270;29;19930;-81
2021/01/18 07:49:47;;;;;;;;;;;1.90;99.90;;;;;;4902453;29;19923;-80
2021/01/18 07:52:30;;;;;;;;;;;1.90;99.90;;;;;;4898999;29;19923;-80
2021/01/18 07:55:03;;;;;;;;;;;2.00;99.90;;;;;;4898493;29;19927;-84
2021/01/18 07:57:38;;;;;;;;;;;2.00;99.90;;;;;;4913525;29;19923;-81
2021/01/18 08:00:27;;;;;;;;;;;1.90;99.90;;;;;;4895177;29;19923;-83
2021/01/18 08:02:56;;;;;;;;;;;2.00;99.90;;;;;;4889352;29;19923;-87
2021/01/18 08:05:27;;;;;;;;;;;1.90;99.90;;;;;;4897937;29;19922;-81
2021/01/18 08:08:02;;;;;;;;;;;1.90;99.90;;;;;;4900621;29;19942;-84
2021/01/18 08:10:50;;;;;;;;;;;1.90;99.90;;;;;;4916516;29;19923;-81
2021/01/18 08:13:33;;;;;;;;;;;2.00;99.90;;;;;;4902609;29;19924;-86
2021/01/18 08:16:13;;;;;;;;;;;2.00;99.90;;;;;;4915894;29;19923;-83
2021/01/18 08:19:02;;;;;;;;;;;2.00;99.90;;;;;;4909207;29;19923;-81
2021/01/18 08:21:43;;;;;;;;;;;2.10;99.90;;;;;;4902232;29;19923;-85
2021/01/18 08:27:06;;;;;;;;;;;2.20;99.90;;;;;;4918095;29;19907;-84
2021/01/18 08:29:40;;;;;;;;;;;2.10;99.90;;;;;;4927781;29;19923;-84
2021/01/18 08:32:31;;;;;;;;;;;2.10;99.90;;;;;;4909979;29;19923;-82
2021/01/18 08:35:00;;;;;;;;;;;2.10;99.90;;;;;;4931755;29;19934;-82
2021/01/18 08:37:29;;;;;;;;;;;2.20;99.90;;;;;;4904802;29;19924;-80
2021/01/18 08:39:57;;;;;;;;;;;2.30;99.90;;;;;;4910944;29;19923;-83
2021/01/18 08:42:30;;;;;;;;;;;2.30;99.90;;;;;;4894777;29;19935;-81
2021/01/18 08:45:01;;;;;;;;;;;2.50;99.90;;;;;;4920227;29;19946;-79
2021/01/18 08:47:52;;;;;;;;;;;2.50;99.90;;;;;;4904055;29;19923;-81
2021/01/18 08:50:24;;;;;;;;;;;2.70;99.90;;;;;;4893598;29;19930;-82
2021/01/18 08:52:56;;;;;;;;;;;2.90;99.90;;;;;;4876254;29;19923;-85
2021/01/18 08:55:51;;;;;;;;;;;3.20;99.90;;;;;;4898307;29;19930;-82
2021/01/18 08:58:32;;;;;;;;;;;3.40;99.90;;;;;;4892525;29;19934;-83
2021/01/18 09:01:00;;;;;;;;;;;3.40;99.90;;;;;;4924317;29;19934;-84
2021/01/18 09:03:28;;;;;;;;;;;3.40;99.90;;;;;;4896751;29;19930;-83
2021/01/18 09:05:59;;;;;;;;;;;3.30;99.90;;;;;;4889195;29;19923;-80
2021/01/18 09:08:27;;;;;;;;;;;3.30;99.90;;;;;;4892957;29;19923;-83
2021/01/18 09:10:55;;;;;;;;;;;3.20;99.90;;;;;;4923405;29;19922;-81
2021/01/18 09:13:23;;;;;;;;;;;3.30;99.90;;;;;;4907671;29;19931;-83
2021/01/18 09:15:54;;;;;;;;;;;3.30;99.90;;;;;;4906756;29;19923;-86
2021/01/18 09:18:27;;;;;;;;;;;3.20;99.90;;;;;;4909865;29;19934;-84
2021/01/18 09:20:58;;;;;;;;;;;3.20;99.90;;;;;;4899696;29;19923;-81
2021/01/18 09:23:31;;;;;;;;;;;3.30;99.90;;;;;;4906483;29;19923;-82
2021/01/18 09:26:03;;;;;;;;;;;3.40;99.90;;;;;;4920734;29;19955;-82
2021/01/18 09:28:35;;;;;;;;;;;3.30;99.90;;;;;;4919690;29;19933;-82
2021/01/18 09:31:10;;;;;;;;;;;3.30;99.90;;;;;;4921842;29;19933;-82
2021/01/18 09:33:37;;;;;;;;;;;3.30;99.90;;;;;;4919155;29;19933;-82
2021/01/18 09:36:12;;;;;;;;;;;3.20;99.90;;;;;;4903965;29;19930;-81
2021/01/18 09:38:42;;;;;;;;;;;3.20;99.90;;;;;;4888701;29;19922;-82
2021/01/18 09:41:13;;;;;;;;;;;3.20;99.90;;;;;;4918907;29;19923;-80
2021/01/18 09:43:41;;;;;;;;;;;3.20;99.90;;;;;;4922358;29;19927;-83
2021/01/18 09:46:09;;;;;;;;;;;3.30;99.90;;;;;;4933316;29;19923;-82
2021/01/18 09:48:37;;;;;;;;;;;3.30;99.90;;;;;;4919069;29;19933;-83
2021/01/18 09:51:06;;;;;;;;;;;3.40;99.90;;;;;;4936757;29;19929;-82
2021/01/18 09:53:43;;;;;;;;;;;3.40;99.90;;;;;;4909195;29;19934;-82
2021/01/18 09:56:15;;;;;;;;;;;3.50;99.90;;;;;;4902111;29;19923;-81
2021/01/18 09:58:45;;;;;;;;;;;3.60;99.90;;;;;;4887950;29;19911;-81
2021/01/18 10:01:13;;;;;;;;;;;3.70;99.90;;;;;;4911382;29;19919;-81
2021/01/18 10:03:41;;;;;;;;;;;3.80;99.90;;;;;;4920948;29;19923;-80
2021/01/18 10:06:12;;;;;;;;;;;3.80;99.90;;;;;;4921137;29;19935;-82
2021/01/18 10:08:42;;;;;;;;;;;3.90;99.90;;;;;;4905192;29;19943;-81
2021/01/18 10:11:11;;;;;;;;;;;3.90;99.90;;;;;;4919810;29;19937;-81
2021/01/18 10:13:38;;;;;;;;;;;3.90;99.90;;;;;;4919740;29;19923;-82
2021/01/18 10:16:09;;;;;;;;;;;3.80;99.90;;;;;;4921496;29;19929;-83
2021/01/18 10:18:42;;;;;;;;;;;3.80;99.90;;;;;;4883724;29;20506;-80
2021/01/18 10:21:10;;;;;;;;;;;3.80;99.90;;;;;;4910870;29;19923;-79
2021/01/18 10:23:42;;;;;;;;;;;3.70;99.90;;;;;;4904337;29;20374;-80
2021/01/18 10:26:17;;;;;;;;;;;3.70;99.90;;;;;;4880433;29;19924;-81
2021/01/18 10:28:52;;;;;;;;;;;3.70;99.90;;;;;;4882370;29;19934;-80
2021/01/18 10:31:25;;;;;;;;;;;3.70;99.90;;;;;;4888097;29;19930;-80
2021/01/18 10:34:12;;;;;;;;;;;3.70;99.90;;;;;;4907702;29;19930;-80
2021/01/18 10:36:47;;;;;;;;;;;3.80;99.90;;;;;;4893937;29;19923;-80
2021/01/18 10:39:26;;;;;;;;;;;4.00;99.90;;;;;;4919027;29;19935;-80
2021/01/18 10:42:01;;;;;;;;;;;4.10;99.90;;;;;;4904659;29;20345;-79
2021/01/18 10:44:30;;;;;;;;;;;4.10;99.90;;;;;;4902424;29;19930;-80
2021/01/18 10:46:58;;;;;;;;;;;4.10;99.90;;;;;;4883247;29;19924;-80
2021/01/18 10:49:27;;;;;;;;;;;4.10;99.90;;;;;;4897698;29;19924;-81
2021/01/18 10:52:05;;;;;;;;;;;4.20;99.90;;;;;;4908574;29;20349;-81
2021/01/18 10:54:36;;;;;;;;;;;4.30;99.90;;;;;;4892829;29;19923;-84
2021/01/18 10:57:18;;;;;;;;;;;4.40;99.90;;;;;;4908295;29;19923;-80
2021/01/18 11:00:03;;;;;;;;;;;4.40;99.90;;;;;;4907495;29;19923;-80
2021/01/18 11:02:41;;;;;;;;;;;4.60;99.90;;;;;;4904710;29;19923;-81
2021/01/18 11:05:09;;;;;;;;;;;4.70;99.90;;;;;;4903576;29;19924;-80
2021/01/18 11:07:39;;;;;;;;;;;4.70;99.90;;;;;;4901842;29;19924;-80
2021/01/18 11:10:08;;;;;;;;;;;4.70;99.90;;;;;;4890503;29;19923;-81
2021/01/18 11:12:41;;;;;;;;;;;4.80;99.90;;;;;;4890574;29;19931;-79
2021/01/18 11:15:10;;;;;;;;;;;4.90;99.90;;;;;;4879358;29;19943;-79
2021/01/18 11:17:40;;;;;;;;;;;4.90;99.90;;;;;;4918587;29;19923;-81
2021/01/18 11:20:08;;;;;;;;;;;5.00;99.90;;;;;;4921336;29;19923;-79
2021/01/18 11:22:38;;;;;;;;;;;4.90;99.90;;;;;;4889292;29;19950;-80
2021/01/18 11:25:12;;;;;;;;;;;4.70;99.90;;;;;;4905392;29;19923;-81
2021/01/18 11:27:40;;;;;;;;;;;4.70;99.90;;;;;;4904606;29;20269;-83
2021/01/18 11:30:10;;;;;;;;;;;4.70;99.90;;;;;;4899778;29;19923;-81
2021/01/18 11:32:37;;;;;;;;;;;4.50;99.90;;;;;;4917327;29;19933;-81
2021/01/18 11:35:06;;;;;;;;;;;4.40;99.90;;;;;;4909054;29;19934;-82
2021/01/18 11:37:39;;;;;;;;;;;4.50;99.90;;;;;;4918976;29;19923;-83
2021/01/18 11:40:08;;;;;;;;;;;4.50;99.90;;;;;;4903735;29;19927;-81
2021/01/18 11:42:45;;;;;;;;;;;4.60;99.90;;;;;;4914435;29;19922;-82
2021/01/18 11:45:14;;;;;;;;;;;4.50;99.90;;;;;;4919451;29;19923;-82
2021/01/18 11:47:41;;;;;;;;;;;4.50;99.90;;;;;;4904168;29;19927;-82
2021/01/18 11:50:09;;;;;;;;;;;4.50;99.90;;;;;;4907901;29;19923;-81
2021/01/18 11:52:46;;;;;;;;;;;4.60;99.90;;;;;;4917609;29;19923;-83
2021/01/18 11:55:14;;;;;;;;;;;4.50;99.90;;;;;;4910905;29;19923;-83
2021/01/18 11:57:44;;;;;;;;;;;4.40;99.90;;;;;;4926147;29;19928;-82
2021/01/18 12:00:17;;;;;;;;;;;4.40;99.90;;;;;;4894239;29;19922;-83
2021/01/18 12:02:44;;;;;;;;;;;4.50;99.90;;;;;;4909826;29;19934;-80
2021/01/18 12:05:12;;;;;;;;;;;4.50;99.90;;;;;;4899954;29;19923;-82
2021/01/18 12:07:39;;;;;;;;;;;4.50;99.90;;;;;;4926670;29;19924;-82
2021/01/18 12:10:09;;;;;;;;;;;4.50;99.90;;;;;;4918284;29;19934;-82
2021/01/18 12:12:37;;;;;;;;;;;4.50;99.90;;;;;;4903267;29;19924;-82
2021/01/18 12:15:05;;;;;;;;;;;4.60;99.90;;;;;;4914868;29;19922;-82
2021/01/18 12:17:37;;;;;;;;;;;4.60;99.90;;;;;;4897088;29;19927;-82
2021/01/18 12:20:04;;;;;;;;;;;4.50;99.90;;;;;;4891981;29;20301;-83
2021/01/18 12:22:31;;;;;;;;;;;4.40;99.90;;;;;;4915716;29;19923;-82
2021/01/18 12:25:01;;;;;;;;;;;4.40;99.90;;;;;;4900754;29;19938;-82
2021/01/18 12:27:29;;;;;;;;;;;4.50;99.90;;;;;;4917803;29;19930;-80
2021/01/18 12:29:57;;;;;;;;;;;4.60;99.90;;;;;;4914824;29;19923;-81
2021/01/18 12:32:24;;;;;;;;;;;4.60;99.90;;;;;;4906071;29;19933;-81
2021/01/18 12:34:52;;;;;;;;;;;4.70;99.90;;;;;;4900853;29;19923;-83
2021/01/18 12:37:27;;;;;;;;;;;4.70;99.90;;;;;;4879596;29;20001;-80
2021/01/18 12:39:56;;;;;;;;;;;4.80;99.90;;;;;;4910919;29;19923;-79
2021/01/18 12:42:24;;;;;;;;;;;4.80;99.90;;;;;;4899175;29;19923;-78
2021/01/18 12:44:54;;;;;;;;;;;4.80;99.90;;;;;;4909784;29;19924;-78
2021/01/18 12:47:21;;;;;;;;;;;4.90;99.90;;;;;;4915864;29;19924;-80
2021/01/18 12:49:51;;;;;;;;;;;4.90;99.90;;;;;;4889161;29;19938;-78
2021/01/18 12:52:20;;;;;;;;;;;4.90;99.90;;;;;;4919221;29;20285;-80
2021/01/18 12:54:49;;;;;;;;;;;4.80;99.90;;;;;;4899397;29;19934;-79
2021/01/18 12:57:16;;;;;;;;;;;4.70;99.90;;;;;;4904670;29;19923;-79
2021/01/18 12:59:47;;;;;;;;;;;4.70;99.90;;;;;;4866809;29;19934;-79
2021/01/18 13:02:17;;;;;;;;;;;4.70;99.90;;;;;;4906835;29;20301;-80
2021/01/18 13:04:44;;;;;;;;;;;4.70;99.90;;;;;;4882877;29;20254;-80
2021/01/18 13:07:12;;;;;;;;;;;4.60;99.90;;;;;;4893633;29;19935;-78
2021/01/18 13:09:40;;;;;;;;;;;4.60;99.90;;;;;;4897526;29;20334;-80
2021/01/18 13:12:10;;;;;;;;;;;4.60;99.90;;;;;;4907553;29;19923;-79
2021/01/18 13:14:37;;;;;;;;;;;4.50;99.90;;;;;;4904332;29;19923;-80
2021/01/18 13:17:06;;;;;;;;;;;4.50;99.90;;;;;;4880677;29;19934;-78
2021/01/18 13:19:36;;;;;;;;;;;4.60;99.90;;;;;;4877469;29;19924;-79
2021/01/18 13:22:06;;;;;;;;;;;4.60;99.90;;;;;;4912143;29;19923;-81
2021/01/18 13:24:33;;;;;;;;;;;4.60;99.90;;;;;;4889900;29;19934;-79
2021/01/18 13:27:03;;;;;;;;;;;4.50;99.90;;;;;;4878359;29;19934;-81
2021/01/18 13:29:30;;;;;;;;;;;4.50;99.90;;;;;;4898689;29;19934;-78
2021/01/18 13:32:00;;;;;;;;;;;4.50;99.90;;;;;;4903382;29;19934;-80
2021/01/18 13:34:27;;;;;;;;;;;4.60;99.90;;;;;;4900101;29;20269;-79
2021/01/18 13:36:57;;;;;;;;;;;4.50;99.90;;;;;;4909245;29;19930;-79
2021/01/18 13:39:24;;;;;;;;;;;4.40;99.90;;;;;;4889032;29;19930;-79
2021/01/18 13:41:52;;;;;;;;;;;4.40;99.90;;;;;;4888767;29;20270;-79
2021/01/18 13:44:20;;;;;;;;;;;4.40;99.90;;;;;;4889918;29;19923;-81
2021/01/18 13:46:47;;;;;;;;;;;4.40;99.90;;;;;;4886111;29;19923;-79
2021/01/18 13:49:15;;;;;;;;;;;4.30;99.90;;;;;;4878506;29;19950;-78
2021/01/18 13:51:43;;;;;;;;;;;4.30;99.90;;;;;;4893850;29;20313;-79
2021/01/18 13:54:10;;;;;;;;;;;4.30;99.90;;;;;;4910181;29;20268;-79
2021/01/18 13:56:39;;;;;;;;;;;4.40;99.90;;;;;;4893549;29;19923;-78
2021/01/18 13:59:09;;;;;;;;;;;4.30;99.90;;;;;;4894255;29;19935;-78
2021/01/18 14:01:37;;;;;;;;;;;4.30;99.90;;;;;;4898531;29;19924;-80
2021/01/18 14:04:11;;;;;;;;;;;4.30;99.90;;;;;;4887989;29;19928;-78
2021/01/18 14:06:39;;;;;;;;;;;4.30;99.90;;;;;;4905699;29;19923;-79
2021/01/18 14:09:07;;;;;;;;;;;4.30;99.90;;;;;;4908457;29;19935;-80
2021/01/18 14:11:37;;;;;;;;;;;4.20;99.90;;;;;;4898307;29;19924;-80
2021/01/18 14:14:04;;;;;;;;;;;4.20;99.90;;;;;;4904749;29;19923;-80
2021/01/18 14:16:31;;;;;;;;;;;4.20;99.90;;;;;;4904863;29;19927;-81
2021/01/18 14:19:03;;;;;;;;;;;4.20;99.90;;;;;;4893654;29;20408;-80
2021/01/18 14:21:33;;;;;;;;;;;4.20;99.90;;;;;;4892384;29;19923;-81
2021/01/18 14:24:02;;;;;;;;;;;4.20;99.90;;;;;;4885291;29;20337;-81
2021/01/18 14:26:32;;;;;;;;;;;4.20;99.90;;;;;;4903693;29;19923;-81
2021/01/18 14:29:00;;;;;;;;;;;4.20;99.90;;;;;;4898944;29;19943;-81
2021/01/18 14:31:28;;;;;;;;;;;4.20;99.90;;;;;;4903357;29;19927;-81
2021/01/18 14:33:56;;;;;;;;;;;4.20;99.90;;;;;;4909808;29;19931;-81
2021/01/18 14:36:25;;;;;;;;;;;4.20;99.90;;;;;;4878495;29;19923;-80
2021/01/18 14:38:54;;;;;;;;;;;4.20;99.90;;;;;;4892888;29;19943;-80
2021/01/18 14:41:23;;;;;;;;;;;4.10;99.90;;;;;;4897324;29;19923;-81
2021/01/18 14:43:50;;;;;;;;;;;4.20;99.90;;;;;;4886997;29;19923;-81
2021/01/18 14:46:20;;;;;;;;;;;4.10;99.90;;;;;;4901313;29;20270;-80
2021/01/18 14:48:48;;;;;;;;;;;4.10;99.90;;;;;;4909291;29;20269;-80
2021/01/18 14:51:18;;;;;;;;;;;4.10;99.90;;;;;;4885689;29;20353;-81